createdAt,value
2023-11-25T00:04:57.571Z,11.75
2023-11-25T00:14:59.464Z,12.25
2023-11-25T00:25:01.579Z,10.77
2023-11-25T00:35:04.321Z,11.40
2023-11-25T00:45:07.045Z,10.40
2023-11-25T00:55:15.596Z,7.97
2023-11-25T01:05:17.661Z,8.88
2023-11-25T01:15:19.644Z,9.38
2023-11-25T01:25:21.637Z,10.50
2023-11-25T01:35:23.619Z,8.20
2023-11-25T01:45:26.753Z,6.68
2023-11-25T01:55:29.180Z,7.90
2023-11-25T02:05:31.373Z,7.95
2023-11-25T02:15:33.479Z,9.10
2023-11-25T02:25:35.443Z,10.50
2023-11-25T02:35:37.656Z,10.30
2023-11-25T02:45:40.673Z,10.40
2023-11-25T02:55:42.955Z,7.45
2023-11-25T03:05:48.111Z,5.97
2023-11-25T03:15:55.573Z,8.75
2023-11-25T03:25:57.524Z,8.90
2023-11-25T03:35:59.452Z,7.93
2023-11-25T03:46:01.330Z,8.27
2023-11-25T03:56:03.242Z,8.93
2023-11-25T04:06:05.694Z,6.35
2023-11-25T04:16:07.862Z,8.68
2023-11-25T04:26:10.950Z,8.50
2023-11-25T04:36:13.879Z,12.30
2023-11-25T04:46:16.799Z,12.10
2023-11-25T04:56:18.975Z,14.73
2023-11-25T05:06:22.170Z,18.65
2023-11-25T05:16:27.247Z,6.72
2023-11-25T05:26:33.965Z,4.88
2023-11-25T05:36:48.678Z,5.78
2023-11-25T05:47:22.080Z,6.38
2023-11-25T05:57:24.286Z,6.80
2023-11-25T06:07:26.213Z,5.50
2023-11-25T06:17:28.251Z,7.07
2023-11-25T06:27:30.228Z,5.32
2023-11-25T06:37:32.154Z,7.18
2023-11-25T06:47:34.184Z,9.43
2023-11-25T06:57:36.536Z,10.07
2023-11-25T07:07:38.791Z,7.22
2023-11-25T07:17:41.243Z,7.22
2023-11-25T07:27:44.255Z,11.95
2023-11-25T07:37:50.132Z,14.57
2023-11-25T07:58:36.120Z,31.20
2023-11-25T08:08:38.224Z,28.23
2023-11-25T08:18:49.647Z,16.98
2023-11-25T08:28:53.763Z,11.57
2023-11-25T08:39:00.759Z,20.75
2023-11-25T08:49:36.568Z,12.85
2023-11-25T08:59:41.929Z,22.85
2023-11-25T09:10:05.354Z,19.80
2023-11-25T09:20:15.723Z,11.25
2023-11-25T09:30:32.661Z,13.43
2023-11-25T09:40:37.480Z,10.65
2023-11-25T09:50:43.940Z,5.72
2023-11-25T10:00:46.657Z,7.35
2023-11-25T10:11:09.894Z,9.68
2023-11-25T10:21:21.521Z,10.93
2023-11-25T10:31:26.928Z,10.60
2023-11-25T10:41:29.038Z,10.35
2023-11-25T10:51:38.542Z,8.38
2023-11-25T11:23:17.248Z,8.40
2023-11-25T11:33:26.076Z,5.38
2023-11-25T11:43:36.437Z,6.47
2023-11-25T12:04:56.383Z,6.18
2023-11-25T12:25:38.037Z,8.63
2023-11-25T12:36:37.755Z,9.35
2023-11-25T12:47:01.898Z,12.38
2023-11-25T12:57:05.606Z,15.43
2023-11-25T13:07:07.640Z,13.43
2023-11-25T13:17:10.113Z,9.70
2023-11-25T13:27:12.434Z,5.75
2023-11-25T13:37:14.366Z,5.03
2023-11-25T13:47:16.576Z,5.10
2023-11-25T13:57:20.180Z,7.20
2023-11-25T14:07:22.100Z,6.20
2023-11-25T14:17:24.769Z,6.63
2023-11-25T14:27:26.831Z,7.20
2023-11-25T14:37:28.862Z,12.40
2023-11-25T14:47:30.932Z,20.27
2023-11-25T14:57:32.864Z,19.38
2023-11-25T15:07:38.046Z,22.20
2023-11-25T15:17:40.096Z,26.48
2023-11-25T15:27:42.050Z,32.03
2023-11-25T15:37:44.135Z,22.23
2023-11-25T15:47:47.503Z,15.93
2023-11-25T15:57:55.705Z,17.98
2023-11-25T16:07:57.657Z,24.63
2023-11-25T16:18:14.889Z,32.60
2023-11-25T16:28:16.884Z,32.75
2023-11-25T16:38:19.729Z,29.88
2023-11-25T16:48:29.474Z,35.47
2023-11-25T16:58:42.218Z,29.95
2023-11-25T17:08:44.291Z,16.00
2023-11-25T17:18:46.587Z,22.67
2023-11-25T17:29:21.139Z,34.58
2023-11-25T17:39:26.333Z,24.17
2023-11-25T19:09:31.099Z,25.95
2023-11-25T19:43:16.956Z,18.00
2023-11-25T20:05:28.647Z,21.45
2023-11-25T20:26:16.579Z,20.50
2023-11-25T20:36:18.990Z,19.42
2023-11-25T20:46:22.120Z,23.98
2023-11-25T20:56:29.892Z,24.60
2023-11-25T21:06:43.903Z,34.22
2023-11-25T21:16:46.768Z,43.53
2023-11-25T21:26:49.143Z,49.22
2023-11-25T21:36:51.484Z,55.75
2023-11-25T21:46:53.938Z,57.13
2023-11-25T21:56:57.512Z,51.47
2023-11-25T22:07:00.967Z,42.47
2023-11-25T22:17:04.597Z,38.00
2023-11-25T22:27:25.870Z,29.70
2023-11-25T22:37:28.435Z,35.45
2023-11-25T22:47:56.920Z,32.67
2023-11-25T22:57:59.216Z,21.50
2023-11-25T23:08:01.521Z,16.23
